sensor_id;sensor_type;location;lat;lon;timestamp;temperature;humidity
14182;DHT22;7171;50.936;6.764;2023-06-24T00:02:04;20.30;99.90
14182;DHT22;7171;50.936;6.764;2023-06-24T00:04:31;20.20;99.90
14182;DHT22;7171;50.936;6.764;2023-06-24T00:06:58;20.20;99.90
14182;DHT22;7171;50.936;6.764;2023-06-24T00:09:26;20.20;99.90
14182;DHT22;7171;50.936;6.764;2023-06-24T00:11:53;20.10;99.90
14182;DHT22;7171;50.936;6.764;2023-06-24T00:14:22;20.10;99.90
14182;DHT22;7171;50.936;6.764;2023-06-24T00:16:51;20.10;99.90
14182;DHT22;7171;50.936;6.764;2023-06-24T00:19:19;20.10;99.90
14182;DHT22;7171;50.936;6.764;2023-06-24T00:21:46;20.00;99.90
14182;DHT22;7171;50.936;6.764;2023-06-24T00:24:13;20.00;99.90
14182;DHT22;7171;50.936;6.764;2023-06-24T00:26:40;20.00;99.90
14182;DHT22;7171;50.936;6.764;2023-06-24T00:29:07;20.00;99.90
14182;DHT22;7171;50.936;6.764;2023-06-24T00:31:35;20.00;99.90
14182;DHT22;7171;50.936;6.764;2023-06-24T00:34:02;20.00;99.90
14182;DHT22;7171;50.936;6.764;2023-06-24T00:36:29;19.90;99.90
14182;DHT22;7171;50.936;6.764;2023-06-24T00:38:57;19.90;99.90
14182;DHT22;7171;50.936;6.764;2023-06-24T00:41:27;19.90;99.90
14182;DHT22;7171;50.936;6.764;2023-06-24T00:43:54;19.80;99.90
14182;DHT22;7171;50.936;6.764;2023-06-24T00:46:23;19.80;99.90
14182;DHT22;7171;50.936;6.764;2023-06-24T00:48:52;19.80;99.90
14182;DHT22;7171;50.936;6.764;2023-06-24T00:51:19;19.70;99.90
14182;DHT22;7171;50.936;6.764;2023-06-24T00:53:46;19.70;99.90
14182;DHT22;7171;50.936;6.764;2023-06-24T00:56:16;19.70;99.90
14182;DHT22;7171;50.936;6.764;2023-06-24T00:58:44;19.70;99.90
14182;DHT22;7171;50.936;6.764;2023-06-24T01:01:12;19.70;99.90
14182;DHT22;7171;50.936;6.764;2023-06-24T01:03:40;19.60;99.90
14182;DHT22;7171;50.936;6.764;2023-06-24T01:06:09;19.60;99.90
14182;DHT22;7171;50.936;6.764;2023-06-24T01:08:36;19.60;99.90
14182;DHT22;7171;50.936;6.764;2023-06-24T01:11:03;19.60;99.90
14182;DHT22;7171;50.936;6.764;2023-06-24T01:13:30;19.60;99.90
14182;DHT22;7171;50.936;6.764;2023-06-24T01:15:58;19.60;99.90
14182;DHT22;7171;50.936;6.764;2023-06-24T01:18:31;19.60;99.90
14182;DHT22;7171;50.936;6.764;2023-06-24T01:21:03;19.60;99.90
14182;DHT22;7171;50.936;6.764;2023-06-24T01:23:56;19.60;99.90
14182;DHT22;7171;50.936;6.764;2023-06-24T01:26:47;19.60;99.90
14182;DHT22;7171;50.936;6.764;2023-06-24T01:29:42;19.50;99.90
14182;DHT22;7171;50.936;6.764;2023-06-24T01:32:19;19.50;99.90
14182;DHT22;7171;50.936;6.764;2023-06-24T01:34:55;19.40;99.90
14182;DHT22;7171;50.936;6.764;2023-06-24T01:37:27;19.40;99.90
14182;DHT22;7171;50.936;6.764;2023-06-24T01:40:05;19.40;99.90
14182;DHT22;7171;50.936;6.764;2023-06-24T01:42:38;19.30;99.90
14182;DHT22;7171;50.936;6.764;2023-06-24T01:45:06;19.30;99.90
14182;DHT22;7171;50.936;6.764;2023-06-24T01:47:35;19.30;99.90
14182;DHT22;7171;50.936;6.764;2023-06-24T01:50:03;19.20;99.90
14182;DHT22;7171;50.936;6.764;2023-06-24T01:52:32;19.20;99.90
14182;DHT22;7171;50.936;6.764;2023-06-24T01:55:01;19.20;99.90
14182;DHT22;7171;50.936;6.764;2023-06-24T01:57:30;19.20;99.90
14182;DHT22;7171;50.936;6.764;2023-06-24T01:59:59;19.10;99.90
14182;DHT22;7171;50.936;6.764;2023-06-24T02:02:32;19.10;99.90
14182;DHT22;7171;50.936;6.764;2023-06-24T02:05:01;19.10;99.90
14182;DHT22;7171;50.936;6.764;2023-06-24T02:07:30;19.10;99.90
14182;DHT22;7171;50.936;6.764;2023-06-24T02:09:58;19.10;99.90
14182;DHT22;7171;50.936;6.764;2023-06-24T02:12:26;19.00;99.90
14182;DHT22;7171;50.936;6.764;2023-06-24T02:14:55;19.00;99.90
14182;DHT22;7171;50.936;6.764;2023-06-24T02:17:24;19.00;99.90
14182;DHT22;7171;50.936;6.764;2023-06-24T02:19:52;19.00;99.90
14182;DHT22;7171;50.936;6.764;2023-06-24T02:22:22;19.00;99.90
14182;DHT22;7171;50.936;6.764;2023-06-24T02:24:50;19.00;99.90
14182;DHT22;7171;50.936;6.764;2023-06-24T02:27:17;19.00;99.90
14182;DHT22;7171;50.936;6.764;2023-06-24T02:29:45;19.00;99.90
14182;DHT22;7171;50.936;6.764;2023-06-24T02:32:13;19.00;99.90
14182;DHT22;7171;50.936;6.764;2023-06-24T02:34:40;19.00;99.90
14182;DHT22;7171;50.936;6.764;2023-06-24T02:37:06;19.00;99.90
14182;DHT22;7171;50.936;6.764;2023-06-24T02:39:35;19.00;99.90
14182;DHT22;7171;50.936;6.764;2023-06-24T02:42:03;19.00;99.90
14182;DHT22;7171;50.936;6.764;2023-06-24T02:44:30;19.00;99.90
14182;DHT22;7171;50.936;6.764;2023-06-24T02:46:57;19.00;99.90
14182;DHT22;7171;50.936;6.764;2023-06-24T02:49:25;19.00;99.90
14182;DHT22;7171;50.936;6.764;2023-06-24T02:51:52;19.00;99.90
14182;DHT22;7171;50.936;6.764;2023-06-24T02:54:20;19.00;99.90
14182;DHT22;7171;50.936;6.764;2023-06-24T02:56:48;19.00;99.90
14182;DHT22;7171;50.936;6.764;2023-06-24T02:59:15;19.00;99.90
14182;DHT22;7171;50.936;6.764;2023-06-24T03:01:42;19.00;99.90
14182;DHT22;7171;50.936;6.764;2023-06-24T03:04:11;19.00;99.90
14182;DHT22;7171;50.936;6.764;2023-06-24T03:06:38;18.90;99.90
14182;DHT22;7171;50.936;6.764;2023-06-24T03:09:06;18.90;99.90
14182;DHT22;7171;50.936;6.764;2023-06-24T03:11:40;18.90;99.90
14182;DHT22;7171;50.936;6.764;2023-06-24T03:14:08;18.90;99.90
14182;DHT22;7171;50.936;6.764;2023-06-24T03:16:35;18.80;99.90
14182;DHT22;7171;50.936;6.764;2023-06-24T03:19:03;18.80;99.90
14182;DHT22;7171;50.936;6.764;2023-06-24T03:21:30;18.80;99.90
14182;DHT22;7171;50.936;6.764;2023-06-24T03:23:57;18.60;99.90
14182;DHT22;7171;50.936;6.764;2023-06-24T03:26:30;18.60;99.90
14182;DHT22;7171;50.936;6.764;2023-06-24T03:28:57;18.70;99.90
14182;DHT22;7171;50.936;6.764;2023-06-24T03:31:25;18.60;99.90
14182;DHT22;7171;50.936;6.764;2023-06-24T03:33:52;18.60;99.90
14182;DHT22;7171;50.936;6.764;2023-06-24T03:36:18;18.50;99.90
14182;DHT22;7171;50.936;6.764;2023-06-24T03:38:45;18.50;99.90
14182;DHT22;7171;50.936;6.764;2023-06-24T03:41:12;18.50;99.90
14182;DHT22;7171;50.936;6.764;2023-06-24T03:43:39;18.40;99.90
14182;DHT22;7171;50.936;6.764;2023-06-24T03:46:07;18.40;99.90
14182;DHT22;7171;50.936;6.764;2023-06-24T03:48:36;18.40;99.90
14182;DHT22;7171;50.936;6.764;2023-06-24T03:51:03;18.40;99.90
14182;DHT22;7171;50.936;6.764;2023-06-24T03:53:30;18.40;99.90
14182;DHT22;7171;50.936;6.764;2023-06-24T03:55:57;18.40;99.90
14182;DHT22;7171;50.936;6.764;2023-06-24T03:58:23;18.40;99.90
14182;DHT22;7171;50.936;6.764;2023-06-24T04:00:50;18.40;99.90
14182;DHT22;7171;50.936;6.764;2023-06-24T04:03:17;18.50;99.90
14182;DHT22;7171;50.936;6.764;2023-06-24T04:05:45;18.50;99.90
14182;DHT22;7171;50.936;6.764;2023-06-24T04:08:12;18.50;99.90
14182;DHT22;7171;50.936;6.764;2023-06-24T04:10:39;18.40;99.90
14182;DHT22;7171;50.936;6.764;2023-06-24T04:13:08;18.40;99.90
14182;DHT22;7171;50.936;6.764;2023-06-24T04:15:35;18.40;99.90
14182;DHT22;7171;50.936;6.764;2023-06-24T04:18:02;18.40;99.90
14182;DHT22;7171;50.936;6.764;2023-06-24T04:20:29;18.40;99.90
14182;DHT22;7171;50.936;6.764;2023-06-24T04:22:58;18.40;99.90
14182;DHT22;7171;50.936;6.764;2023-06-24T04:25:24;18.40;99.90
14182;DHT22;7171;50.936;6.764;2023-06-24T04:27:51;18.40;99.90
14182;DHT22;7171;50.936;6.764;2023-06-24T04:30:18;18.40;99.90
14182;DHT22;7171;50.936;6.764;2023-06-24T04:32:45;18.40;99.90
14182;DHT22;7171;50.936;6.764;2023-06-24T04:35:11;18.50;99.90
14182;DHT22;7171;50.936;6.764;2023-06-24T04:37:38;18.50;99.90
14182;DHT22;7171;50.936;6.764;2023-06-24T04:40:08;18.50;99.90
14182;DHT22;7171;50.936;6.764;2023-06-24T04:42:35;18.50;99.90
14182;DHT22;7171;50.936;6.764;2023-06-24T04:45:02;18.60;99.90
14182;DHT22;7171;50.936;6.764;2023-06-24T04:47:30;18.60;99.90
14182;DHT22;7171;50.936;6.764;2023-06-24T04:49:57;18.70;99.90
14182;DHT22;7171;50.936;6.764;2023-06-24T04:52:24;18.70;99.90
14182;DHT22;7171;50.936;6.764;2023-06-24T04:54:51;18.80;99.90
14182;DHT22;7171;50.936;6.764;2023-06-24T04:57:29;18.80;99.90
14182;DHT22;7171;50.936;6.764;2023-06-24T04:59:57;18.90;99.90
14182;DHT22;7171;50.936;6.764;2023-06-24T05:02:24;18.90;99.90
14182;DHT22;7171;50.936;6.764;2023-06-24T05:04:51;19.00;99.90
14182;DHT22;7171;50.936;6.764;2023-06-24T05:07:18;19.10;99.90
14182;DHT22;7171;50.936;6.764;2023-06-24T05:09:46;19.10;99.90
14182;DHT22;7171;50.936;6.764;2023-06-24T05:12:13;19.20;99.90
14182;DHT22;7171;50.936;6.764;2023-06-24T05:14:41;19.20;99.90
14182;DHT22;7171;50.936;6.764;2023-06-24T05:17:08;19.30;99.90
14182;DHT22;7171;50.936;6.764;2023-06-24T05:19:35;19.30;99.90
14182;DHT22;7171;50.936;6.764;2023-06-24T05:22:02;19.40;99.90
14182;DHT22;7171;50.936;6.764;2023-06-24T05:24:28;19.50;99.90
14182;DHT22;7171;50.936;6.764;2023-06-24T05:26:55;19.60;99.90
14182;DHT22;7171;50.936;6.764;2023-06-24T05:29:22;19.60;99.90
14182;DHT22;7171;50.936;6.764;2023-06-24T05:31:50;19.70;99.90
14182;DHT22;7171;50.936;6.764;2023-06-24T05:34:17;19.70;99.90
14182;DHT22;7171;50.936;6.764;2023-06-24T05:36:43;19.80;99.90
14182;DHT22;7171;50.936;6.764;2023-06-24T05:39:10;19.80;99.90
14182;DHT22;7171;50.936;6.764;2023-06-24T05:41:38;19.90;99.90
14182;DHT22;7171;50.936;6.764;2023-06-24T05:44:06;19.90;99.90
14182;DHT22;7171;50.936;6.764;2023-06-24T05:46:34;19.90;99.90
14182;DHT22;7171;50.936;6.764;2023-06-24T05:49:02;19.90;99.90
14182;DHT22;7171;50.936;6.764;2023-06-24T05:51:30;20.00;99.90
14182;DHT22;7171;50.936;6.764;2023-06-24T05:53:56;20.00;99.90
14182;DHT22;7171;50.936;6.764;2023-06-24T05:56:23;20.00;99.90
14182;DHT22;7171;50.936;6.764;2023-06-24T05:58:50;20.10;99.90
14182;DHT22;7171;50.936;6.764;2023-06-24T06:01:17;20.10;99.90
14182;DHT22;7171;50.936;6.764;2023-06-24T06:03:44;20.20;99.90
14182;DHT22;7171;50.936;6.764;2023-06-24T06:06:12;20.30;99.90
14182;DHT22;7171;50.936;6.764;2023-06-24T06:08:39;20.30;99.90
14182;DHT22;7171;50.936;6.764;2023-06-24T06:11:05;20.40;99.90
14182;DHT22;7171;50.936;6.764;2023-06-24T06:13:33;20.50;99.90
14182;DHT22;7171;50.936;6.764;2023-06-24T06:15:59;20.50;99.90
14182;DHT22;7171;50.936;6.764;2023-06-24T06:18:26;20.60;99.90
14182;DHT22;7171;50.936;6.764;2023-06-24T06:20:53;20.60;99.90
14182;DHT22;7171;50.936;6.764;2023-06-24T06:23:21;20.70;99.90
14182;DHT22;7171;50.936;6.764;2023-06-24T06:25:48;20.80;99.90
14182;DHT22;7171;50.936;6.764;2023-06-24T06:28:15;20.80;99.90
14182;DHT22;7171;50.936;6.764;2023-06-24T06:30:42;20.90;99.90
14182;DHT22;7171;50.936;6.764;2023-06-24T06:33:08;21.00;99.90
14182;DHT22;7171;50.936;6.764;2023-06-24T06:35:35;21.00;99.90
14182;DHT22;7171;50.936;6.764;2023-06-24T06:38:02;21.10;99.90
14182;DHT22;7171;50.936;6.764;2023-06-24T06:40:30;21.20;99.90
14182;DHT22;7171;50.936;6.764;2023-06-24T06:42:57;21.20;99.90
14182;DHT22;7171;50.936;6.764;2023-06-24T06:45:24;21.30;99.90
14182;DHT22;7171;50.936;6.764;2023-06-24T06:47:51;21.30;99.90
14182;DHT22;7171;50.936;6.764;2023-06-24T06:50:18;21.40;99.90
14182;DHT22;7171;50.936;6.764;2023-06-24T06:52:45;21.40;99.90
14182;DHT22;7171;50.936;6.764;2023-06-24T06:55:11;21.50;99.90
14182;DHT22;7171;50.936;6.764;2023-06-24T06:57:39;21.60;99.90
14182;DHT22;7171;50.936;6.764;2023-06-24T07:00:08;21.60;99.90
14182;DHT22;7171;50.936;6.764;2023-06-24T07:02:35;21.70;99.90
14182;DHT22;7171;50.936;6.764;2023-06-24T07:05:02;21.60;99.90
14182;DHT22;7171;50.936;6.764;2023-06-24T07:07:29;21.80;99.90
14182;DHT22;7171;50.936;6.764;2023-06-24T07:09:55;21.70;99.90
14182;DHT22;7171;50.936;6.764;2023-06-24T07:12:22;21.80;99.90
14182;DHT22;7171;50.936;6.764;2023-06-24T07:14:51;21.80;99.90
14182;DHT22;7171;50.936;6.764;2023-06-24T07:17:17;21.80;99.90
14182;DHT22;7171;50.936;6.764;2023-06-24T07:19:44;21.90;99.90
14182;DHT22;7171;50.936;6.764;2023-06-24T07:22:11;21.90;99.90
14182;DHT22;7171;50.936;6.764;2023-06-24T07:24:38;21.90;99.90
14182;DHT22;7171;50.936;6.764;2023-06-24T07:27:05;22.00;99.90
14182;DHT22;7171;50.936;6.764;2023-06-24T07:29:32;22.00;99.90
14182;DHT22;7171;50.936;6.764;2023-06-24T07:32:00;22.00;99.90
14182;DHT22;7171;50.936;6.764;2023-06-24T07:34:28;22.10;99.90
14182;DHT22;7171;50.936;6.764;2023-06-24T07:36:58;22.10;99.90
14182;DHT22;7171;50.936;6.764;2023-06-24T07:39:25;22.10;99.90
14182;DHT22;7171;50.936;6.764;2023-06-24T07:41:51;22.20;99.90
14182;DHT22;7171;50.936;6.764;2023-06-24T07:44:18;22.30;99.90
14182;DHT22;7171;50.936;6.764;2023-06-24T07:46:45;22.30;99.90
14182;DHT22;7171;50.936;6.764;2023-06-24T07:49:15;22.40;99.90
14182;DHT22;7171;50.936;6.764;2023-06-24T07:51:41;22.30;99.90
14182;DHT22;7171;50.936;6.764;2023-06-24T07:54:10;22.40;99.90
14182;DHT22;7171;50.936;6.764;2023-06-24T07:56:37;22.50;99.90
14182;DHT22;7171;50.936;6.764;2023-06-24T07:59:04;22.60;99.90
14182;DHT22;7171;50.936;6.764;2023-06-24T08:01:30;22.70;99.90
14182;DHT22;7171;50.936;6.764;2023-06-24T08:03:57;22.70;99.90
14182;DHT22;7171;50.936;6.764;2023-06-24T08:06:25;22.80;99.90
14182;DHT22;7171;50.936;6.764;2023-06-24T08:08:52;22.90;99.90
14182;DHT22;7171;50.936;6.764;2023-06-24T08:11:19;22.90;99.90
14182;DHT22;7171;50.936;6.764;2023-06-24T08:13:47;23.00;99.90
14182;DHT22;7171;50.936;6.764;2023-06-24T08:16:16;23.00;99.90
14182;DHT22;7171;50.936;6.764;2023-06-24T08:18:43;23.00;99.90
14182;DHT22;7171;50.936;6.764;2023-06-24T08:21:10;23.20;99.90
14182;DHT22;7171;50.936;6.764;2023-06-24T08:23:38;23.30;99.90
14182;DHT22;7171;50.936;6.764;2023-06-24T08:26:06;23.40;99.90
14182;DHT22;7171;50.936;6.764;2023-06-24T08:28:33;23.50;99.90
14182;DHT22;7171;50.936;6.764;2023-06-24T08:30:59;23.50;99.90
14182;DHT22;7171;50.936;6.764;2023-06-24T08:33:26;23.60;99.90
14182;DHT22;7171;50.936;6.764;2023-06-24T08:35:53;23.60;99.90
14182;DHT22;7171;50.936;6.764;2023-06-24T08:38:20;23.70;99.90
14182;DHT22;7171;50.936;6.764;2023-06-24T08:40:49;23.80;99.90
14182;DHT22;7171;50.936;6.764;2023-06-24T08:43:16;23.80;99.90
14182;DHT22;7171;50.936;6.764;2023-06-24T08:45:43;24.00;99.90
14182;DHT22;7171;50.936;6.764;2023-06-24T08:48:10;24.00;99.90
14182;DHT22;7171;50.936;6.764;2023-06-24T08:50:43;24.10;99.90
14182;DHT22;7171;50.936;6.764;2023-06-24T08:53:12;24.10;99.90
14182;DHT22;7171;50.936;6.764;2023-06-24T08:55:43;24.20;99.90
14182;DHT22;7171;50.936;6.764;2023-06-24T08:58:12;24.40;99.90
14182;DHT22;7171;50.936;6.764;2023-06-24T09:00:39;24.30;99.90
14182;DHT22;7171;50.936;6.764;2023-06-24T09:03:07;24.40;99.90
14182;DHT22;7171;50.936;6.764;2023-06-24T09:05:33;24.50;99.90
14182;DHT22;7171;50.936;6.764;2023-06-24T09:08:00;24.60;99.90
14182;DHT22;7171;50.936;6.764;2023-06-24T09:10:31;24.60;99.90
14182;DHT22;7171;50.936;6.764;2023-06-24T09:12:59;24.70;99.90
14182;DHT22;7171;50.936;6.764;2023-06-24T09:15:29;24.70;99.90
14182;DHT22;7171;50.936;6.764;2023-06-24T09:17:56;24.80;99.90
14182;DHT22;7171;50.936;6.764;2023-06-24T09:20:23;24.90;99.90
14182;DHT22;7171;50.936;6.764;2023-06-24T09:22:50;25.00;99.90
14182;DHT22;7171;50.936;6.764;2023-06-24T09:25:18;25.00;99.90
14182;DHT22;7171;50.936;6.764;2023-06-24T09:27:47;25.00;99.90
14182;DHT22;7171;50.936;6.764;2023-06-24T09:30:19;25.10;99.90
14182;DHT22;7171;50.936;6.764;2023-06-24T09:32:48;25.20;99.90
14182;DHT22;7171;50.936;6.764;2023-06-24T09:35:17;25.30;99.90
14182;DHT22;7171;50.936;6.764;2023-06-24T09:37:49;25.40;99.90
14182;DHT22;7171;50.936;6.764;2023-06-24T09:40:16;25.50;99.90
14182;DHT22;7171;50.936;6.764;2023-06-24T09:42:49;25.50;99.90
14182;DHT22;7171;50.936;6.764;2023-06-24T09:45:20;25.70;99.90
14182;DHT22;7171;50.936;6.764;2023-06-24T09:47:48;25.70;99.90
14182;DHT22;7171;50.936;6.764;2023-06-24T09:50:15;25.70;99.90
14182;DHT22;7171;50.936;6.764;2023-06-24T09:52:43;25.80;99.90
14182;DHT22;7171;50.936;6.764;2023-06-24T09:55:12;25.90;99.90
14182;DHT22;7171;50.936;6.764;2023-06-24T09:57:40;26.00;99.90
14182;DHT22;7171;50.936;6.764;2023-06-24T10:00:09;26.10;99.90
14182;DHT22;7171;50.936;6.764;2023-06-24T10:02:36;26.20;99.90
14182;DHT22;7171;50.936;6.764;2023-06-24T10:05:05;26.20;99.90
14182;DHT22;7171;50.936;6.764;2023-06-24T10:07:33;26.30;99.90
14182;DHT22;7171;50.936;6.764;2023-06-24T10:10:01;26.40;99.90
14182;DHT22;7171;50.936;6.764;2023-06-24T10:12:29;26.30;99.90
14182;DHT22;7171;50.936;6.764;2023-06-24T10:14:57;26.40;99.90
14182;DHT22;7171;50.936;6.764;2023-06-24T10:17:24;26.40;99.90
14182;DHT22;7171;50.936;6.764;2023-06-24T10:19:52;26.50;99.90
14182;DHT22;7171;50.936;6.764;2023-06-24T10:22:22;26.50;99.90
14182;DHT22;7171;50.936;6.764;2023-06-24T10:24:51;26.60;99.90
14182;DHT22;7171;50.936;6.764;2023-06-24T10:27:20;26.70;99.90
14182;DHT22;7171;50.936;6.764;2023-06-24T10:29:48;26.70;99.90
14182;DHT22;7171;50.936;6.764;2023-06-24T10:32:16;26.90;99.90
14182;DHT22;7171;50.936;6.764;2023-06-24T10:34:44;26.90;99.90
14182;DHT22;7171;50.936;6.764;2023-06-24T10:37:13;26.90;99.90
14182;DHT22;7171;50.936;6.764;2023-06-24T10:39:52;26.90;99.90
14182;DHT22;7171;50.936;6.764;2023-06-24T10:42:33;27.00;99.90
14182;DHT22;7171;50.936;6.764;2023-06-24T10:45:13;27.00;99.90
14182;DHT22;7171;50.936;6.764;2023-06-24T10:47:41;27.00;99.90
14182;DHT22;7171;50.936;6.764;2023-06-24T10:50:11;26.90;99.90
14182;DHT22;7171;50.936;6.764;2023-06-24T10:52:39;27.00;99.90
14182;DHT22;7171;50.936;6.764;2023-06-24T10:55:08;27.00;99.90
14182;DHT22;7171;50.936;6.764;2023-06-24T10:57:35;27.10;99.90
14182;DHT22;7171;50.936;6.764;2023-06-24T11:00:03;27.10;99.90
14182;DHT22;7171;50.936;6.764;2023-06-24T11:02:30;27.10;99.90
14182;DHT22;7171;50.936;6.764;2023-06-24T11:04:58;27.20;99.90
14182;DHT22;7171;50.936;6.764;2023-06-24T11:07:26;27.20;99.90
14182;DHT22;7171;50.936;6.764;2023-06-24T11:09:55;27.20;99.90
14182;DHT22;7171;50.936;6.764;2023-06-24T11:12:25;27.20;99.90
14182;DHT22;7171;50.936;6.764;2023-06-24T11:14:55;27.30;99.90
14182;DHT22;7171;50.936;6.764;2023-06-24T11:17:21;27.30;99.90
14182;DHT22;7171;50.936;6.764;2023-06-24T11:19:48;27.30;99.90
14182;DHT22;7171;50.936;6.764;2023-06-24T11:22:15;27.40;99.90
14182;DHT22;7171;50.936;6.764;2023-06-24T11:24:42;27.40;99.90
14182;DHT22;7171;50.936;6.764;2023-06-24T11:27:09;27.50;99.90
14182;DHT22;7171;50.936;6.764;2023-06-24T11:29:37;27.60;99.90
14182;DHT22;7171;50.936;6.764;2023-06-24T11:32:07;27.70;99.90
14182;DHT22;7171;50.936;6.764;2023-06-24T11:34:34;27.70;99.90
14182;DHT22;7171;50.936;6.764;2023-06-24T11:37:10;27.80;99.90
14182;DHT22;7171;50.936;6.764;2023-06-24T11:39:36;27.90;99.90
14182;DHT22;7171;50.936;6.764;2023-06-24T11:42:06;28.00;99.90
14182;DHT22;7171;50.936;6.764;2023-06-24T11:44:33;28.10;99.90
14182;DHT22;7171;50.936;6.764;2023-06-24T11:47:05;28.10;99.90
14182;DHT22;7171;50.936;6.764;2023-06-24T11:49:32;28.20;99.90
14182;DHT22;7171;50.936;6.764;2023-06-24T11:52:13;28.20;99.90
14182;DHT22;7171;50.936;6.764;2023-06-24T11:54:41;28.20;99.90
14182;DHT22;7171;50.936;6.764;2023-06-24T11:57:08;28.10;99.90
14182;DHT22;7171;50.936;6.764;2023-06-24T11:59:35;28.20;99.90
14182;DHT22;7171;50.936;6.764;2023-06-24T12:02:02;28.20;99.90
14182;DHT22;7171;50.936;6.764;2023-06-24T12:04:31;28.30;99.90
14182;DHT22;7171;50.936;6.764;2023-06-24T12:06:59;28.30;99.90
14182;DHT22;7171;50.936;6.764;2023-06-24T12:09:26;28.30;99.90
14182;DHT22;7171;50.936;6.764;2023-06-24T12:11:53;28.30;99.90
14182;DHT22;7171;50.936;6.764;2023-06-24T12:14:20;28.30;99.90
14182;DHT22;7171;50.936;6.764;2023-06-24T12:16:46;28.50;99.90
14182;DHT22;7171;50.936;6.764;2023-06-24T12:19:13;28.40;99.90
14182;DHT22;7171;50.936;6.764;2023-06-24T12:21:41;28.50;99.90
14182;DHT22;7171;50.936;6.764;2023-06-24T12:24:08;28.50;99.90
14182;DHT22;7171;50.936;6.764;2023-06-24T12:26:35;28.50;99.90
14182;DHT22;7171;50.936;6.764;2023-06-24T12:29:02;28.60;99.90
14182;DHT22;7171;50.936;6.764;2023-06-24T12:31:30;28.60;99.80
14182;DHT22;7171;50.936;6.764;2023-06-24T12:33:57;28.60;99.10
14182;DHT22;7171;50.936;6.764;2023-06-24T12:36:23;28.60;99.50
14182;DHT22;7171;50.936;6.764;2023-06-24T12:38:51;28.70;99.60
14182;DHT22;7171;50.936;6.764;2023-06-24T12:41:18;28.70;99.70
14182;DHT22;7171;50.936;6.764;2023-06-24T12:43:45;28.70;99.30
14182;DHT22;7171;50.936;6.764;2023-06-24T12:46:12;28.70;99.30
14182;DHT22;7171;50.936;6.764;2023-06-24T12:48:38;28.70;98.90
14182;DHT22;7171;50.936;6.764;2023-06-24T12:51:05;28.70;98.60
14182;DHT22;7171;50.936;6.764;2023-06-24T12:53:32;28.60;98.50
14182;DHT22;7171;50.936;6.764;2023-06-24T12:56:00;28.60;96.80
14182;DHT22;7171;50.936;6.764;2023-06-24T12:58:27;28.50;97.60
14182;DHT22;7171;50.936;6.764;2023-06-24T13:00:53;28.40;97.50
14182;DHT22;7171;50.936;6.764;2023-06-24T13:03:20;28.40;97.80
14182;DHT22;7171;50.936;6.764;2023-06-24T13:05:47;28.40;98.40
14182;DHT22;7171;50.936;6.764;2023-06-24T13:08:14;28.40;97.80
14182;DHT22;7171;50.936;6.764;2023-06-24T13:10:40;28.50;98.00
14182;DHT22;7171;50.936;6.764;2023-06-24T13:13:08;28.50;97.70
14182;DHT22;7171;50.936;6.764;2023-06-24T13:15:35;28.50;97.70
14182;DHT22;7171;50.936;6.764;2023-06-24T13:18:03;28.60;97.60
14182;DHT22;7171;50.936;6.764;2023-06-24T13:20:30;28.60;96.80
14182;DHT22;7171;50.936;6.764;2023-06-24T13:22:56;28.60;97.30
14182;DHT22;7171;50.936;6.764;2023-06-24T13:25:23;28.60;96.80
14182;DHT22;7171;50.936;6.764;2023-06-24T13:27:50;28.60;97.10
14182;DHT22;7171;50.936;6.764;2023-06-24T13:30:18;28.50;96.70
14182;DHT22;7171;50.936;6.764;2023-06-24T13:32:45;28.60;96.30
14182;DHT22;7171;50.936;6.764;2023-06-24T13:35:11;28.60;95.70
14182;DHT22;7171;50.936;6.764;2023-06-24T13:37:38;28.70;96.10
14182;DHT22;7171;50.936;6.764;2023-06-24T13:40:07;28.70;96.40
14182;DHT22;7171;50.936;6.764;2023-06-24T13:42:34;28.60;96.20
14182;DHT22;7171;50.936;6.764;2023-06-24T13:45:01;28.60;96.40
14182;DHT22;7171;50.936;6.764;2023-06-24T13:47:29;28.70;96.00
14182;DHT22;7171;50.936;6.764;2023-06-24T13:49:56;28.80;96.30
14182;DHT22;7171;50.936;6.764;2023-06-24T13:52:24;28.80;96.00
14182;DHT22;7171;50.936;6.764;2023-06-24T13:54:51;28.90;95.60
14182;DHT22;7171;50.936;6.764;2023-06-24T13:57:18;28.90;95.70
14182;DHT22;7171;50.936;6.764;2023-06-24T13:59:44;29.00;95.20
14182;DHT22;7171;50.936;6.764;2023-06-24T14:02:11;29.00;95.80
14182;DHT22;7171;50.936;6.764;2023-06-24T14:04:39;29.10;94.70
14182;DHT22;7171;50.936;6.764;2023-06-24T14:07:07;29.10;95.00
14182;DHT22;7171;50.936;6.764;2023-06-24T14:09:34;29.10;95.20
14182;DHT22;7171;50.936;6.764;2023-06-24T14:12:01;29.10;94.60
14182;DHT22;7171;50.936;6.764;2023-06-24T14:14:27;29.10;94.50
14182;DHT22;7171;50.936;6.764;2023-06-24T14:16:54;29.10;94.40
14182;DHT22;7171;50.936;6.764;2023-06-24T14:19:21;29.10;94.10
14182;DHT22;7171;50.936;6.764;2023-06-24T14:21:49;29.10;94.40
14182;DHT22;7171;50.936;6.764;2023-06-24T14:24:16;29.10;94.30
14182;DHT22;7171;50.936;6.764;2023-06-24T14:26:43;29.20;94.70
14182;DHT22;7171;50.936;6.764;2023-06-24T14:29:10;29.20;94.60
14182;DHT22;7171;50.936;6.764;2023-06-24T14:31:36;29.30;94.10
14182;DHT22;7171;50.936;6.764;2023-06-24T14:36:30;29.50;93.50
14182;DHT22;7171;50.936;6.764;2023-06-24T14:38:58;29.70;95.90
14182;DHT22;7171;50.936;6.764;2023-06-24T14:41:25;29.50;93.70
14182;DHT22;7171;50.936;6.764;2023-06-24T14:43:52;29.50;93.30
14182;DHT22;7171;50.936;6.764;2023-06-24T14:46:18;29.50;93.10
14182;DHT22;7171;50.936;6.764;2023-06-24T14:48:45;29.50;92.80
14182;DHT22;7171;50.936;6.764;2023-06-24T14:51:13;29.40;91.80
14182;DHT22;7171;50.936;6.764;2023-06-24T14:53:40;29.40;91.30
14182;DHT22;7171;50.936;6.764;2023-06-24T14:56:08;29.50;91.30
14182;DHT22;7171;50.936;6.764;2023-06-24T14:58:34;29.50;91.40
14182;DHT22;7171;50.936;6.764;2023-06-24T15:01:01;29.40;91.80
14182;DHT22;7171;50.936;6.764;2023-06-24T15:24:52;30.50;90.50
14182;DHT22;7171;50.936;6.764;2023-06-24T15:27:19;30.40;90.30
14182;DHT22;7171;50.936;6.764;2023-06-24T15:29:46;30.30;91.20
14182;DHT22;7171;50.936;6.764;2023-06-24T15:32:12;30.30;90.30
14182;DHT22;7171;50.936;6.764;2023-06-24T15:34:39;30.20;90.50
14182;DHT22;7171;50.936;6.764;2023-06-24T15:37:06;30.10;90.80
14182;DHT22;7171;50.936;6.764;2023-06-24T15:39:33;30.10;90.60
14182;DHT22;7171;50.936;6.764;2023-06-24T15:42:01;30.10;90.10
14182;DHT22;7171;50.936;6.764;2023-06-24T15:44:28;30.00;90.70
14182;DHT22;7171;50.936;6.764;2023-06-24T15:46:55;30.00;90.40
14182;DHT22;7171;50.936;6.764;2023-06-24T15:49:22;29.90;90.60
14182;DHT22;7171;50.936;6.764;2023-06-24T15:51:49;29.90;90.40
14182;DHT22;7171;50.936;6.764;2023-06-24T15:54:16;30.00;90.00
14182;DHT22;7171;50.936;6.764;2023-06-24T15:56:42;29.90;90.20
14182;DHT22;7171;50.936;6.764;2023-06-24T15:59:10;29.90;84.70
14182;DHT22;7171;50.936;6.764;2023-06-24T16:01:38;29.80;86.50
14182;DHT22;7171;50.936;6.764;2023-06-24T16:04:07;29.70;87.30
14182;DHT22;7171;50.936;6.764;2023-06-24T16:06:34;29.70;85.80
14182;DHT22;7171;50.936;6.764;2023-06-24T16:09:01;29.60;83.70
14182;DHT22;7171;50.936;6.764;2023-06-24T16:11:28;29.50;83.00
14182;DHT22;7171;50.936;6.764;2023-06-24T16:13:55;29.40;83.00